Time;durP1;ratioP1;P1;durP2;ratioP2;P2;SDS_P1;SDS_P2;PMS_P1;PMS_P2;Temp;Humidity;BMP_temperature;BMP_pressure;BME280_temperature;BME280_humidity;BME280_pressure;Samples;Min_cycle;Max_cycle;Signal;HPM_P1;HPM_P2
2024/03/23 00:02:08;;;;;;;9.02;5.57;;;;;;;;;;4995326;28;20046;-85
2024/03/23 00:04:34;;;;;;;6.35;5.22;;;;;;;;;;5020850;28;20698;-88
2024/03/23 00:07:00;;;;;;;7.22;5.28;;;;;;;;;;5018956;28;20065;-86
2024/03/23 00:09:26;;;;;;;11.38;5.50;;;;;;;;;;5014154;28;20053;-86
2024/03/23 00:11:52;;;;;;;6.55;5.65;;;;;;;;;;4994293;28;20073;-86
2024/03/23 00:14:18;;;;;;;7.88;5.40;;;;;;;;;;5013560;28;20108;-87
2024/03/23 00:16:44;;;;;;;8.23;5.60;;;;;;;;;;4993937;28;20110;-87
2024/03/23 00:19:10;;;;;;;9.77;5.65;;;;;;;;;;4998742;28;20137;-86
2024/03/23 00:21:38;;;;;;;10.90;5.93;;;;;;;;;;5001937;28;20061;-86
2024/03/23 00:24:05;;;;;;;7.57;6.00;;;;;;;;;;4996918;28;20056;-86
2024/03/23 00:26:31;;;;;;;10.95;6.22;;;;;;;;;;4996656;28;20068;-86
2024/03/23 00:28:57;;;;;;;9.52;5.72;;;;;;;;;;4997095;28;20140;-85
2024/03/23 00:31:23;;;;;;;6.18;5.32;;;;;;;;;;4995833;28;20065;-87
2024/03/23 00:33:49;;;;;;;9.25;5.88;;;;;;;;;;5000337;28;20515;-86
2024/03/23 00:36:15;;;;;;;8.95;6.35;;;;;;;;;;4995096;28;20496;-84
2024/03/23 00:38:41;;;;;;;9.05;6.22;;;;;;;;;;4994429;28;20057;-84
2024/03/23 00:41:07;;;;;;;12.75;6.75;;;;;;;;;;4993757;28;20507;-85
2024/03/23 00:43:33;;;;;;;10.77;6.95;;;;;;;;;;4997339;28;20058;-86
2024/03/23 00:45:59;;;;;;;14.80;7.22;;;;;;;;;;4993660;28;20436;-85
2024/03/23 00:48:26;;;;;;;10.48;6.70;;;;;;;;;;4998471;28;20049;-85
2024/03/23 00:50:52;;;;;;;8.30;6.38;;;;;;;;;;4994137;28;20058;-86
2024/03/23 00:53:18;;;;;;;9.52;6.28;;;;;;;;;;4996454;28;20057;-87
2024/03/23 00:55:43;;;;;;;9.00;6.25;;;;;;;;;;5016307;28;20132;-85
2024/03/23 00:58:09;;;;;;;11.73;6.78;;;;;;;;;;5013427;28;20053;-85
2024/03/23 01:00:34;;;;;;;9.93;6.32;;;;;;;;;;5013344;28;20053;-85
2024/03/23 01:03:00;;;;;;;12.23;6.68;;;;;;;;;;4997253;28;20527;-85
2024/03/23 01:05:25;;;;;;;8.52;5.93;;;;;;;;;;5014404;28;20054;-84
2024/03/23 01:07:51;;;;;;;7.75;5.40;;;;;;;;;;5023897;28;20064;-83
2024/03/23 01:10:16;;;;;;;8.43;5.53;;;;;;;;;;5003548;28;20155;-85
2024/03/23 01:12:42;;;;;;;10.70;6.22;;;;;;;;;;5008019;28;20100;-83
2024/03/23 01:15:08;;;;;;;8.80;6.00;;;;;;;;;;5022454;28;20064;-84
2024/03/23 01:17:33;;;;;;;9.07;5.30;;;;;;;;;;5024932;28;20096;-83
2024/03/23 01:19:59;;;;;;;9.43;5.75;;;;;;;;;;5017681;28;20056;-86
2024/03/23 01:22:24;;;;;;;7.30;5.20;;;;;;;;;;5033491;28;20046;-86
2024/03/23 01:24:50;;;;;;;6.90;5.18;;;;;;;;;;5026137;28;20495;-85
2024/03/23 01:27:15;;;;;;;7.80;5.38;;;;;;;;;;5014828;28;20053;-86
2024/03/23 01:29:41;;;;;;;7.28;5.32;;;;;;;;;;5022035;28;20053;-86
2024/03/23 01:32:07;;;;;;;6.30;4.90;;;;;;;;;;5004393;28;20527;-85
2024/03/23 01:34:32;;;;;;;8.68;4.95;;;;;;;;;;5018072;28;20088;-84
2024/03/23 01:36:58;;;;;;;5.97;5.07;;;;;;;;;;5016988;28;20049;-86
2024/03/23 01:39:24;;;;;;;5.05;4.32;;;;;;;;;;5014938;28;20500;-86
2024/03/23 01:41:49;;;;;;;8.98;4.70;;;;;;;;;;5016730;28;20053;-85
2024/03/23 01:44:16;;;;;;;6.95;4.40;;;;;;;;;;5016568;28;20124;-86
2024/03/23 01:46:42;;;;;;;6.82;4.10;;;;;;;;;;5018408;28;20064;-86
2024/03/23 01:49:07;;;;;;;6.80;4.95;;;;;;;;;;5020834;28;20088;-85
2024/03/23 01:51:33;;;;;;;6.07;4.22;;;;;;;;;;5000655;28;20056;-85
2024/03/23 01:54:02;;;;;;;7.15;4.75;;;;;;;;;;5000634;28;20133;-85
2024/03/23 01:56:28;;;;;;;5.45;4.15;;;;;;;;;;4999655;28;20069;-85
2024/03/23 01:58:54;;;;;;;4.82;3.25;;;;;;;;;;5013624;28;20048;-85
2024/03/23 02:01:19;;;;;;;4.75;3.67;;;;;;;;;;5020840;28;20050;-84
2024/03/23 02:03:45;;;;;;;4.50;3.67;;;;;;;;;;5010485;28;20052;-84
2024/03/23 02:06:10;;;;;;;9.52;3.40;;;;;;;;;;5009868;28;20060;-84
2024/03/23 02:08:36;;;;;;;8.98;4.03;;;;;;;;;;5010096;28;20084;-84
2024/03/23 02:11:01;;;;;;;4.78;3.47;;;;;;;;;;5006206;28;20066;-84
2024/03/23 02:13:27;;;;;;;5.32;3.00;;;;;;;;;;5023557;28;20085;-83
2024/03/23 02:15:52;;;;;;;4.50;2.80;;;;;;;;;;5029579;28;20057;-84
2024/03/23 02:18:18;;;;;;;4.50;2.80;;;;;;;;;;5022674;28;20052;-82
2024/03/23 02:20:44;;;;;;;6.45;2.72;;;;;;;;;;5022038;28;20049;-82
2024/03/23 02:23:13;;;;;;;4.75;2.92;;;;;;;;;;5018852;28;20056;-81
2024/03/23 02:25:38;;;;;;;5.70;2.88;;;;;;;;;;5002798;28;20045;-81
2024/03/23 02:28:04;;;;;;;4.65;3.38;;;;;;;;;;5005326;28;20130;-81
2024/03/23 02:30:30;;;;;;;4.25;2.30;;;;;;;;;;5020501;28;20057;-82
2024/03/23 02:32:55;;;;;;;4.28;2.67;;;;;;;;;;5015746;28;20100;-83
2024/03/23 02:35:21;;;;;;;3.00;2.70;;;;;;;;;;5001270;28;20056;-84
2024/03/23 02:37:48;;;;;;;3.45;2.10;;;;;;;;;;4999662;28;20058;-83
2024/03/23 02:40:14;;;;;;;3.85;2.25;;;;;;;;;;5001296;28;20076;-83
2024/03/23 02:42:39;;;;;;;5.43;2.90;;;;;;;;;;5019387;28;20045;-85
2024/03/23 02:45:05;;;;;;;5.78;2.85;;;;;;;;;;5020309;28;20470;-85
2024/03/23 02:47:31;;;;;;;4.45;2.33;;;;;;;;;;4997852;28;20068;-84
2024/03/23 02:49:57;;;;;;;4.30;2.42;;;;;;;;;;4997580;28;20061;-83
2024/03/23 02:52:22;;;;;;;4.45;2.72;;;;;;;;;;5018445;28;20443;-83
2024/03/23 02:54:48;;;;;;;3.17;2.28;;;;;;;;;;5016004;28;20049;-84
2024/03/23 02:57:13;;;;;;;4.93;3.00;;;;;;;;;;5018881;28;20045;-84
2024/03/23 02:59:39;;;;;;;4.50;2.35;;;;;;;;;;5032229;28;20455;-84
2024/03/23 03:02:04;;;;;;;4.25;2.25;;;;;;;;;;5037380;28;20053;-85
2024/03/23 03:04:30;;;;;;;4.88;2.78;;;;;;;;;;5020238;28;20057;-85
2024/03/23 03:06:56;;;;;;;2.90;2.33;;;;;;;;;;5003480;28;20058;-85
2024/03/23 03:09:21;;;;;;;3.38;2.35;;;;;;;;;;5004581;28;20061;-84
2024/03/23 03:11:47;;;;;;;3.88;2.22;;;;;;;;;;5023592;28;20057;-84
2024/03/23 03:14:13;;;;;;;3.50;1.73;;;;;;;;;;5005681;28;20068;-83
2024/03/23 03:16:51;;;;;;;3.88;2.08;;;;;;;;;;5023180;28;20052;-84
2024/03/23 03:19:17;;;;;;;2.33;2.08;;;;;;;;;;5031097;28;20057;-85
2024/03/23 03:21:43;;;;;;;2.00;1.75;;;;;;;;;;5011678;28;20054;-84
2024/03/23 03:24:09;;;;;;;3.15;1.85;;;;;;;;;;5010480;28;20101;-84
2024/03/23 03:26:34;;;;;;;3.55;2.00;;;;;;;;;;5020426;28;20124;-84
2024/03/23 03:29:00;;;;;;;2.20;1.75;;;;;;;;;;5018609;28;20084;-84
2024/03/23 03:31:26;;;;;;;4.22;2.00;;;;;;;;;;5016282;28;20069;-84
2024/03/23 03:33:51;;;;;;;2.17;1.95;;;;;;;;;;5015329;28;20057;-84
2024/03/23 03:36:17;;;;;;;2.70;2.22;;;;;;;;;;5005382;28;20081;-83
2024/03/23 03:38:42;;;;;;;2.05;1.65;;;;;;;;;;5021130;28;20084;-84
2024/03/23 03:41:08;;;;;;;2.10;1.90;;;;;;;;;;5016786;28;20504;-83
2024/03/23 03:43:33;;;;;;;3.00;1.70;;;;;;;;;;5007730;28;20080;-83
2024/03/23 03:45:59;;;;;;;2.78;1.83;;;;;;;;;;5023793;28;20065;-83
2024/03/23 03:48:25;;;;;;;7.13;1.58;;;;;;;;;;5036318;28;20048;-84
2024/03/23 03:50:51;;;;;;;2.72;1.80;;;;;;;;;;5023771;28;20045;-83
2024/03/23 03:53:17;;;;;;;3.33;1.90;;;;;;;;;;5040230;28;20083;-83
2024/03/23 03:55:42;;;;;;;3.58;1.83;;;;;;;;;;5022207;28;20049;-83
2024/03/23 03:58:08;;;;;;;3.53;1.77;;;;;;;;;;5022394;28;20048;-84
2024/03/23 04:00:33;;;;;;;2.60;1.70;;;;;;;;;;5024715;28;20053;-83
2024/03/23 04:02:59;;;;;;;2.08;1.60;;;;;;;;;;5020016;28;20049;-82
2024/03/23 04:05:24;;;;;;;3.15;2.08;;;;;;;;;;5020089;28;20050;-82
2024/03/23 04:07:50;;;;;;;3.75;2.33;;;;;;;;;;5024174;28;20470;-80
2024/03/23 04:10:15;;;;;;;3.88;2.13;;;;;;;;;;5019922;28;20153;-79
2024/03/23 04:12:43;;;;;;;2.67;2.00;;;;;;;;;;5013903;28;20053;-84
2024/03/23 04:15:09;;;;;;;5.95;2.30;;;;;;;;;;5008816;28;20419;-84
2024/03/23 04:17:35;;;;;;;3.78;2.80;;;;;;;;;;5014663;28;20056;-83
2024/03/23 04:20:08;;;;;;;3.92;2.38;;;;;;;;;;5023267;28;20639;-82
2024/03/23 04:22:37;;;;;;;2.90;2.00;;;;;;;;;;5027919;28;20068;-82
2024/03/23 04:25:06;;;;;;;3.08;2.05;;;;;;;;;;5025093;28;20061;-83
2024/03/23 04:27:32;;;;;;;3.35;1.95;;;;;;;;;;5024978;28;20083;-84
2024/03/23 04:29:58;;;;;;;3.08;1.95;;;;;;;;;;5032943;28;20055;-85
2024/03/23 04:32:23;;;;;;;2.85;1.90;;;;;;;;;;5006833;28;20053;-84
2024/03/23 04:34:49;;;;;;;6.57;2.35;;;;;;;;;;5001593;28;20050;-84
2024/03/23 04:37:14;;;;;;;4.78;2.20;;;;;;;;;;5026104;28;20052;-84
2024/03/23 04:39:41;;;;;;;2.38;2.03;;;;;;;;;;5017273;28;20550;-85
2024/03/23 04:42:07;;;;;;;4.90;2.70;;;;;;;;;;5014124;28;20049;-85
2024/03/23 04:44:33;;;;;;;8.27;2.80;;;;;;;;;;4997969;28;20054;-84
2024/03/23 04:46:58;;;;;;;5.18;3.30;;;;;;;;;;5010213;28;20059;-83
2024/03/23 04:49:24;;;;;;;3.72;3.33;;;;;;;;;;5022124;28;20497;-86
2024/03/23 04:51:49;;;;;;;4.45;3.42;;;;;;;;;;5001296;28;20089;-86
2024/03/23 04:54:15;;;;;;;4.97;4.10;;;;;;;;;;5014581;28;20058;-89
2024/03/23 04:56:40;;;;;;;6.88;4.63;;;;;;;;;;5018744;28;20124;-86
2024/03/23 04:59:09;;;;;;;12.98;5.75;;;;;;;;;;5029476;28;20041;-86
2024/03/23 05:01:35;;;;;;;8.82;6.13;;;;;;;;;;5017294;28;20103;-87
2024/03/23 05:04:01;;;;;;;9.63;6.47;;;;;;;;;;4997742;28;20107;-86
2024/03/23 05:06:26;;;;;;;10.52;6.97;;;;;;;;;;4999991;28;20069;-86
2024/03/23 05:08:52;;;;;;;10.23;7.00;;;;;;;;;;5022726;28;20061;-83
2024/03/23 05:11:18;;;;;;;15.43;9.10;;;;;;;;;;5028627;28;20049;-84
2024/03/23 05:13:43;;;;;;;13.23;9.35;;;;;;;;;;5024250;28;20109;-84
2024/03/23 05:16:09;;;;;;;16.65;10.60;;;;;;;;;;5009610;28;20128;-83
2024/03/23 05:18:34;;;;;;;17.23;10.70;;;;;;;;;;5031192;28;20128;-84
2024/03/23 05:21:00;;;;;;;15.30;10.95;;;;;;;;;;5006473;28;20046;-85
2024/03/23 05:23:26;;;;;;;17.25;11.65;;;;;;;;;;5039584;28;20057;-85
2024/03/23 05:25:51;;;;;;;17.25;12.18;;;;;;;;;;5001076;28;20056;-85
2024/03/23 05:28:17;;;;;;;15.82;11.18;;;;;;;;;;5015176;28;20096;-85
2024/03/23 05:30:43;;;;;;;20.52;12.10;;;;;;;;;;5010864;28;20045;-84
2024/03/23 05:33:09;;;;;;;17.13;10.68;;;;;;;;;;5019961;28;20056;-87
2024/03/23 05:35:34;;;;;;;16.55;11.20;;;;;;;;;;5000821;28;20103;-86
2024/03/23 05:38:00;;;;;;;18.77;11.52;;;;;;;;;;5000797;28;20061;-90
2024/03/23 05:40:26;;;;;;;18.75;12.85;;;;;;;;;;5007113;28;20049;-90
2024/03/23 05:42:55;;;;;;;19.17;11.43;;;;;;;;;;5016480;28;20057;-88
2024/03/23 05:45:22;;;;;;;18.00;11.07;;;;;;;;;;5001336;28;20057;-89
2024/03/23 05:47:48;;;;;;;17.98;11.40;;;;;;;;;;5000595;28;20057;-88
2024/03/23 05:50:13;;;;;;;17.98;10.63;;;;;;;;;;5007373;28;20064;-89
2024/03/23 05:52:39;;;;;;;18.77;9.15;;;;;;;;;;5000608;28;20053;-88
2024/03/23 05:55:05;;;;;;;14.13;7.97;;;;;;;;;;4999777;28;20053;-89
2024/03/23 05:57:31;;;;;;;8.02;5.75;;;;;;;;;;5016784;28;20084;-90
2024/03/23 05:59:56;;;;;;;10.80;5.40;;;;;;;;;;5011354;28;20114;-89
2024/03/23 06:02:22;;;;;;;9.02;6.00;;;;;;;;;;5001785;28;20064;-91
2024/03/23 06:04:48;;;;;;;10.50;5.90;;;;;;;;;;5005004;28;20480;-92
2024/03/23 06:07:13;;;;;;;9.55;6.20;;;;;;;;;;4992382;28;20049;-88
2024/03/23 06:09:42;;;;;;;8.90;5.70;;;;;;;;;;5016735;28;20092;-88
2024/03/23 06:12:08;;;;;;;8.30;5.55;;;;;;;;;;4999592;28;20424;-87
2024/03/23 06:14:34;;;;;;;6.97;4.55;;;;;;;;;;5015416;28;20128;-86
2024/03/23 06:17:00;;;;;;;6.53;4.05;;;;;;;;;;5015977;28;20054;-85
2024/03/23 06:19:27;;;;;;;5.55;3.88;;;;;;;;;;5016023;28;20045;-86
2024/03/23 06:21:56;;;;;;;6.10;3.88;;;;;;;;;;5015960;28;20076;-87
2024/03/23 06:24:21;;;;;;;5.20;4.10;;;;;;;;;;5013546;28;20651;-90
2024/03/23 06:26:47;;;;;;;6.43;4.03;;;;;;;;;;4996165;28;20057;-86
2024/03/23 06:29:13;;;;;;;5.43;3.58;;;;;;;;;;5019616;28;20081;-87
2024/03/23 06:31:39;;;;;;;7.65;3.40;;;;;;;;;;4999820;28;20201;-88
2024/03/23 06:34:04;;;;;;;4.10;2.40;;;;;;;;;;5001227;28;20061;-79
2024/03/23 06:36:30;;;;;;;4.53;2.65;;;;;;;;;;5018625;28;20108;-84
2024/03/23 06:38:56;;;;;;;3.05;2.38;;;;;;;;;;5008916;28;20432;-84
2024/03/23 06:41:22;;;;;;;2.85;2.20;;;;;;;;;;5022020;28;20057;-84
2024/03/23 06:43:47;;;;;;;3.55;2.15;;;;;;;;;;5008016;28;20423;-78
2024/03/23 06:46:13;;;;;;;2.90;2.10;;;;;;;;;;5047237;28;20057;-80
2024/03/23 06:48:38;;;;;;;2.88;1.50;;;;;;;;;;5026777;28;20050;-80
2024/03/23 06:51:04;;;;;;;2.08;1.60;;;;;;;;;;5024448;28;20084;-80
2024/03/23 06:53:29;;;;;;;3.13;1.67;;;;;;;;;;5021719;28;20120;-78
2024/03/23 06:55:55;;;;;;;1.58;1.20;;;;;;;;;;5019478;28;20053;-78
2024/03/23 06:58:21;;;;;;;1.77;1.00;;;;;;;;;;5020608;28;20042;-78
2024/03/23 07:00:47;;;;;;;1.20;1.08;;;;;;;;;;5005161;28;20593;-77
2024/03/23 07:03:12;;;;;;;1.08;0.80;;;;;;;;;;5020821;28;20059;-78
2024/03/23 07:05:38;;;;;;;0.80;0.80;;;;;;;;;;5020562;28;20124;-77
2024/03/23 07:08:03;;;;;;;0.82;0.80;;;;;;;;;;5020100;28;20105;-78
2024/03/23 07:10:29;;;;;;;3.05;0.70;;;;;;;;;;5000409;28;20045;-79
2024/03/23 07:12:54;;;;;;;0.93;0.68;;;;;;;;;;5027578;28;20103;-77
2024/03/23 07:15:20;;;;;;;0.73;0.70;;;;;;;;;;5012668;28;20061;-77
2024/03/23 07:17:49;;;;;;;0.90;0.68;;;;;;;;;;5012184;28;20037;-77
2024/03/23 07:20:14;;;;;;;0.55;0.55;;;;;;;;;;5012469;28;20049;-77
2024/03/23 07:22:40;;;;;;;1.20;0.90;;;;;;;;;;5000321;28;20056;-77
2024/03/23 07:25:06;;;;;;;0.70;0.70;;;;;;;;;;5029612;28;20041;-76
2024/03/23 07:27:31;;;;;;;0.75;0.68;;;;;;;;;;5012958;28;20062;-77
2024/03/23 07:29:57;;;;;;;0.80;0.80;;;;;;;;;;5010650;28;20565;-76
2024/03/23 07:32:23;;;;;;;0.40;0.40;;;;;;;;;;5009110;28;20085;-76
2024/03/23 07:34:48;;;;;;;2.05;0.50;;;;;;;;;;5011548;28;20057;-77
2024/03/23 07:37:14;;;;;;;0.50;0.50;;;;;;;;;;5017310;28;20048;-76
2024/03/23 07:39:40;;;;;;;0.50;0.40;;;;;;;;;;5011783;28;20045;-80
2024/03/23 07:42:06;;;;;;;0.40;0.40;;;;;;;;;;4997730;28;20050;-79
2024/03/23 07:44:31;;;;;;;0.85;0.40;;;;;;;;;;5017742;28;20057;-81
2024/03/23 07:46:58;;;;;;;0.60;0.60;;;;;;;;;;5018303;28;20108;-79
2024/03/23 07:49:24;;;;;;;0.30;0.30;;;;;;;;;;5018422;28;20526;-83
2024/03/23 07:51:49;;;;;;;0.80;0.80;;;;;;;;;;5014076;28;20053;-80
2024/03/23 07:54:15;;;;;;;0.70;0.40;;;;;;;;;;5012464;28;20084;-79
2024/03/23 07:56:40;;;;;;;0.60;0.60;;;;;;;;;;4994648;28;20104;-82
2024/03/23 07:59:06;;;;;;;0.98;0.70;;;;;;;;;;5014713;28;20514;-80
2024/03/23 08:01:32;;;;;;;0.60;0.52;;;;;;;;;;5005730;28;20053;-80
2024/03/23 08:03:58;;;;;;;2.55;0.77;;;;;;;;;;4996895;28;20061;-79
2024/03/23 08:06:23;;;;;;;0.60;0.50;;;;;;;;;;5008125;28;20503;-79
2024/03/23 08:08:59;;;;;;;0.40;0.40;;;;;;;;;;4996588;28;20056;-83
2024/03/23 08:11:25;;;;;;;1.63;0.52;;;;;;;;;;5016012;28;20053;-77
2024/03/23 08:13:51;;;;;;;0.80;0.68;;;;;;;;;;5000564;28;20042;-77
2024/03/23 08:16:16;;;;;;;2.47;1.27;;;;;;;;;;5005624;28;20107;-78
2024/03/23 08:18:42;;;;;;;3.47;1.63;;;;;;;;;;5012446;28;20107;-77
2024/03/23 08:21:08;;;;;;;2.10;1.00;;;;;;;;;;5005256;28;20041;-77
2024/03/23 08:23:35;;;;;;;1.45;0.98;;;;;;;;;;5013225;28;20049;-77
2024/03/23 08:26:01;;;;;;;5.15;1.70;;;;;;;;;;5010694;28;20049;-82
2024/03/23 08:28:27;;;;;;;2.97;1.27;;;;;;;;;;4988895;28;20053;-78
2024/03/23 08:30:53;;;;;;;1.50;0.95;;;;;;;;;;5016570;28;20064;-78
2024/03/23 08:33:19;;;;;;;0.55;0.50;;;;;;;;;;5034089;28;20053;-79
2024/03/23 08:35:57;;;;;;;0.68;0.40;;;;;;;;;;5035186;28;20049;-78
2024/03/23 08:38:23;;;;;;;0.30;0.30;;;;;;;;;;5026751;28;20050;-79
2024/03/23 08:40:59;;;;;;;0.75;0.63;;;;;;;;;;5003032;28;20169;-78
2024/03/23 08:43:25;;;;;;;0.45;0.40;;;;;;;;;;5022306;28;20063;-78
2024/03/23 08:45:51;;;;;;;2.58;0.77;;;;;;;;;;5002722;28;20042;-78
2024/03/23 08:48:18;;;;;;;1.23;0.70;;;;;;;;;;5019125;28;20058;-78
2024/03/23 08:50:43;;;;;;;4.72;1.60;;;;;;;;;;5021000;28;20049;-79
2024/03/23 08:53:09;;;;;;;3.28;1.48;;;;;;;;;;5033187;28;20420;-78
2024/03/23 08:55:35;;;;;;;5.20;1.00;;;;;;;;;;5023647;28;20061;-78
2024/03/23 08:58:01;;;;;;;2.60;1.10;;;;;;;;;;5001747;28;20046;-78
2024/03/23 09:00:26;;;;;;;3.08;2.08;;;;;;;;;;5000977;28;20076;-78
2024/03/23 09:02:52;;;;;;;3.55;1.00;;;;;;;;;;4996352;28;20074;-78
2024/03/23 09:05:21;;;;;;;2.53;1.15;;;;;;;;;;5030541;28;20054;-78
2024/03/23 09:07:47;;;;;;;1.38;1.10;;;;;;;;;;5018556;28;20103;-78
2024/03/23 09:10:13;;;;;;;2.78;1.08;;;;;;;;;;5013603;28;20057;-79
2024/03/23 09:12:38;;;;;;;7.65;1.58;;;;;;;;;;5017083;28;20049;-79
2024/03/23 09:15:04;;;;;;;5.82;1.70;;;;;;;;;;5024396;28;20053;-79
2024/03/23 09:17:29;;;;;;;2.53;1.38;;;;;;;;;;5026143;28;20042;-84
2024/03/23 09:19:55;;;;;;;5.30;1.38;;;;;;;;;;5009475;28;20762;-83
2024/03/23 09:22:21;;;;;;;2.88;1.58;;;;;;;;;;5016227;28;20049;-84
2024/03/23 09:24:46;;;;;;;5.90;1.75;;;;;;;;;;4993052;28;20965;-84
2024/03/23 09:27:12;;;;;;;8.13;2.20;;;;;;;;;;5029821;28;20057;-82
2024/03/23 09:29:37;;;;;;;3.95;1.92;;;;;;;;;;5012333;28;20057;-84
2024/03/23 09:32:03;;;;;;;6.50;1.88;;;;;;;;;;5013010;28;20057;-82
2024/03/23 09:34:29;;;;;;;5.88;2.55;;;;;;;;;;5016215;28;20053;-82
2024/03/23 09:36:54;;;;;;;2.97;2.00;;;;;;;;;;5019387;28;20124;-81
2024/03/23 09:39:20;;;;;;;7.78;2.08;;;;;;;;;;5014625;28;20049;-81
2024/03/23 09:41:45;;;;;;;6.63;2.08;;;;;;;;;;5016064;28;20486;-81
2024/03/23 09:44:11;;;;;;;6.75;1.90;;;;;;;;;;5028926;28;20051;-81
2024/03/23 09:46:38;;;;;;;5.28;2.20;;;;;;;;;;4998548;28;20059;-81
2024/03/23 09:49:05;;;;;;;5.38;2.28;;;;;;;;;;5010574;28;20058;-81
2024/03/23 09:51:31;;;;;;;4.13;2.22;;;;;;;;;;5002215;28;20057;-81
2024/03/23 09:53:56;;;;;;;6.55;2.72;;;;;;;;;;5019108;28;20053;-81
2024/03/23 09:56:23;;;;;;;5.10;3.08;;;;;;;;;;5012259;28;20539;-81
2024/03/23 09:58:49;;;;;;;5.85;2.30;;;;;;;;;;5002829;28;20038;-82
2024/03/23 10:01:14;;;;;;;7.18;1.95;;;;;;;;;;4991033;28;20100;-82
2024/03/23 10:03:46;;;;;;;7.15;1.75;;;;;;;;;;5002936;28;20053;-81
2024/03/23 10:06:12;;;;;;;4.55;2.08;;;;;;;;;;5014718;28;20049;-81
2024/03/23 10:08:38;;;;;;;10.57;2.67;;;;;;;;;;5010550;28;20053;-79
2024/03/23 10:11:15;;;;;;;4.43;2.03;;;;;;;;;;4995609;28;20050;-80
2024/03/23 10:13:44;;;;;;;6.32;2.88;;;;;;;;;;4995889;28;20045;-80
2024/03/23 10:16:10;;;;;;;4.00;2.22;;;;;;;;;;5014105;28;20096;-79
2024/03/23 10:18:39;;;;;;;4.03;2.30;;;;;;;;;;5001105;28;20050;-79
2024/03/23 10:21:08;;;;;;;8.38;3.17;;;;;;;;;;4997275;28;20046;-79
2024/03/23 10:23:34;;;;;;;4.32;2.25;;;;;;;;;;5012942;28;20096;-80
2024/03/23 10:26:20;;;;;;;5.82;2.00;;;;;;;;;;5012432;28;20075;-80
2024/03/23 10:29:04;;;;;;;3.67;1.70;;;;;;;;;;5000583;28;20413;-80
2024/03/23 10:31:30;;;;;;;9.38;2.30;;;;;;;;;;5001717;28;20064;-80
2024/03/23 10:33:56;;;;;;;5.32;2.00;;;;;;;;;;5010586;28;20062;-79
2024/03/23 10:36:22;;;;;;;9.23;2.30;;;;;;;;;;5003650;28;20057;-79
2024/03/23 10:38:48;;;;;;;2.50;1.80;;;;;;;;;;5003736;28;20049;-80
2024/03/23 10:41:13;;;;;;;4.93;1.92;;;;;;;;;;5006996;28;20052;-80
2024/03/23 10:43:39;;;;;;;5.03;2.33;;;;;;;;;;4999916;28;20057;-81
2024/03/23 10:46:04;;;;;;;4.70;2.25;;;;;;;;;;5027624;28;20067;-86
2024/03/23 10:48:31;;;;;;;3.70;2.30;;;;;;;;;;5082971;23;20137;-81
2024/03/23 10:50:56;;;;;;;3.67;1.90;;;;;;;;;;5023752;28;20420;-80
2024/03/23 10:53:22;;;;;;;6.00;2.08;;;;;;;;;;5041161;28;20052;-80
2024/03/23 10:55:48;;;;;;;8.27;2.10;;;;;;;;;;5016875;28;20060;-83
2024/03/23 10:58:14;;;;;;;6.38;2.58;;;;;;;;;;5003662;28;20045;-81
2024/03/23 11:00:39;;;;;;;10.95;3.22;;;;;;;;;;5013791;28;20054;-80
2024/03/23 11:03:25;;;;;;;6.68;3.25;;;;;;;;;;5014565;28;20050;-79
2024/03/23 11:05:51;;;;;;;8.95;3.50;;;;;;;;;;5008900;28;20057;-79
2024/03/23 11:08:45;;;;;;;8.77;3.97;;;;;;;;;;4997292;28;20145;-79
2024/03/23 11:11:20;;;;;;;8.75;3.53;;;;;;;;;;5006272;28;20084;-79
2024/03/23 11:13:47;;;;;;;7.63;4.10;;;;;;;;;;5014201;28;20737;-79
2024/03/23 11:16:15;;;;;;;6.07;3.47;;;;;;;;;;4995405;28;20554;-79
2024/03/23 11:18:41;;;;;;;5.43;3.67;;;;;;;;;;5010461;28;20064;-79
2024/03/23 11:21:07;;;;;;;9.27;3.85;;;;;;;;;;4994687;28;20056;-79
2024/03/23 11:23:33;;;;;;;8.48;4.18;;;;;;;;;;4991384;28;20499;-79
2024/03/23 11:25:59;;;;;;;8.63;4.10;;;;;;;;;;5006235;28;20049;-79
2024/03/23 11:28:25;;;;;;;6.57;3.85;;;;;;;;;;4998981;28;20057;-79
2024/03/23 11:30:51;;;;;;;5.53;3.40;;;;;;;;;;5010563;28;20049;-79
2024/03/23 11:33:17;;;;;;;6.13;2.85;;;;;;;;;;5020323;28;20692;-80
2024/03/23 11:35:42;;;;;;;5.38;2.30;;;;;;;;;;4998841;28;20057;-80
2024/03/23 11:38:08;;;;;;;6.18;3.05;;;;;;;;;;5020346;28;20087;-80
2024/03/23 11:40:35;;;;;;;5.55;2.90;;;;;;;;;;5030056;28;20045;-78
2024/03/23 11:43:01;;;;;;;5.97;3.08;;;;;;;;;;4992765;28;20077;-82
2024/03/23 11:45:28;;;;;;;5.30;3.03;;;;;;;;;;4998050;28;20042;-81
2024/03/23 11:48:10;;;;;;;3.67;2.35;;;;;;;;;;5006058;28;20179;-78
2024/03/23 11:50:38;;;;;;;4.00;2.17;;;;;;;;;;5016323;28;20046;-78
2024/03/23 11:53:10;;;;;;;3.90;1.90;;;;;;;;;;5019929;28;20046;-78
2024/03/23 11:55:42;;;;;;;2.93;1.93;;;;;;;;;;5007306;28;20489;-78
2024/03/23 11:58:08;;;;;;;3.90;2.27;;;;;;;;;;5013142;28;20494;-78
2024/03/23 12:00:34;;;;;;;4.53;2.00;;;;;;;;;;5009896;28;20315;-77
2024/03/23 12:03:01;;;;;;;3.15;2.03;;;;;;;;;;4992370;28;20050;-78
2024/03/23 12:05:27;;;;;;;2.55;1.90;;;;;;;;;;5011733;28;20437;-79
2024/03/23 12:07:53;;;;;;;6.32;1.73;;;;;;;;;;5004623;28;20064;-78
2024/03/23 12:10:19;;;;;;;4.05;1.50;;;;;;;;;;4990351;28;20125;-78
2024/03/23 12:12:46;;;;;;;4.65;1.50;;;;;;;;;;5005098;28;20058;-78
2024/03/23 12:15:13;;;;;;;4.43;1.45;;;;;;;;;;5008845;28;20053;-78
2024/03/23 12:17:38;;;;;;;4.20;1.60;;;;;;;;;;5007439;28;20060;-78
2024/03/23 12:20:04;;;;;;;3.40;1.63;;;;;;;;;;5011793;28;20137;-78
2024/03/23 12:22:30;;;;;;;2.78;1.13;;;;;;;;;;4995558;28;20050;-78
2024/03/23 12:24:56;;;;;;;6.50;1.42;;;;;;;;;;5009969;28;20052;-78
2024/03/23 12:27:22;;;;;;;2.65;1.20;;;;;;;;;;5002296;28;20053;-78
2024/03/23 12:29:49;;;;;;;4.75;1.52;;;;;;;;;;4985541;28;20061;-78
2024/03/23 12:32:16;;;;;;;2.70;1.35;;;;;;;;;;5026200;28;20507;-78
2024/03/23 12:34:42;;;;;;;3.47;1.48;;;;;;;;;;5002413;28;20057;-78
2024/03/23 12:37:07;;;;;;;7.40;1.63;;;;;;;;;;5011415;28;20061;-78
2024/03/23 12:39:35;;;;;;;4.72;1.20;;;;;;;;;;5027211;28;20426;-78
2024/03/23 12:42:02;;;;;;;5.18;1.20;;;;;;;;;;5015469;28;20206;-78
2024/03/23 12:44:28;;;;;;;2.83;1.35;;;;;;;;;;5005617;28;20081;-78
2024/03/23 12:46:54;;;;;;;4.35;1.10;;;;;;;;;;5003003;28;20435;-77
2024/03/23 12:49:20;;;;;;;5.63;1.30;;;;;;;;;;4994319;28;20092;-78
2024/03/23 12:52:04;;;;;;;4.00;1.23;;;;;;;;;;5009412;28;20053;-78
2024/03/23 12:54:31;;;;;;;2.10;1.13;;;;;;;;;;5024389;28;20427;-78
2024/03/23 12:56:57;;;;;;;4.20;1.83;;;;;;;;;;5012408;28;20050;-77
2024/03/23 12:59:23;;;;;;;2.92;1.30;;;;;;;;;;5024630;28;20053;-78
2024/03/23 13:01:48;;;;;;;4.88;1.40;;;;;;;;;;5011858;28;20084;-77
2024/03/23 13:04:15;;;;;;;5.30;1.52;;;;;;;;;;5012067;28;20052;-78
2024/03/23 13:06:40;;;;;;;4.43;1.80;;;;;;;;;;5013765;28;20058;-78
2024/03/23 13:09:06;;;;;;;7.38;1.48;;;;;;;;;;5007961;28;20435;-78
2024/03/23 13:11:32;;;;;;;6.30;1.48;;;;;;;;;;5032127;28;20065;-78
2024/03/23 13:13:58;;;;;;;3.90;1.35;;;;;;;;;;5016460;28;20057;-78
2024/03/23 13:16:24;;;;;;;6.25;1.67;;;;;;;;;;5015695;28;20093;-78
2024/03/23 13:18:49;;;;;;;8.32;1.60;;;;;;;;;;5013309;28;20504;-77
2024/03/23 13:21:16;;;;;;;3.95;2.13;;;;;;;;;;4996493;28;20050;-77
2024/03/23 13:23:43;;;;;;;3.92;1.70;;;;;;;;;;5012635;28;20050;-78
2024/03/23 13:26:09;;;;;;;4.53;1.50;;;;;;;;;;5016413;28;20282;-77
2024/03/23 13:28:37;;;;;;;6.60;1.80;;;;;;;;;;5031887;28;20520;-76
2024/03/23 13:31:03;;;;;;;5.30;1.55;;;;;;;;;;5011193;28;20057;-77
2024/03/23 13:33:32;;;;;;;5.25;1.70;;;;;;;;;;5013394;28;20057;-77
2024/03/23 13:35:58;;;;;;;5.47;1.40;;;;;;;;;;5018616;28;20546;-77
2024/03/23 13:38:23;;;;;;;3.78;1.58;;;;;;;;;;5007766;28;20114;-77
2024/03/23 13:40:59;;;;;;;4.43;1.58;;;;;;;;;;5006813;28;20125;-77
2024/03/23 13:43:28;;;;;;;3.50;1.60;;;;;;;;;;5012832;28;20045;-79
2024/03/23 13:45:54;;;;;;;5.65;1.30;;;;;;;;;;5016291;28;20041;-77
2024/03/23 13:48:20;;;;;;;4.75;1.40;;;;;;;;;;5013752;28;20046;-78
2024/03/23 13:50:48;;;;;;;7.93;1.45;;;;;;;;;;5008657;28;20500;-79
2024/03/23 13:53:14;;;;;;;5.22;0.95;;;;;;;;;;5029196;28;20050;-78
2024/03/23 13:55:47;;;;;;;6.97;1.80;;;;;;;;;;5037821;28;20057;-77
2024/03/23 13:58:12;;;;;;;4.05;1.50;;;;;;;;;;5008105;28;20050;-77
2024/03/23 14:00:38;;;;;;;4.07;1.50;;;;;;;;;;5000597;28;20478;-77
2024/03/23 14:03:03;;;;;;;4.80;1.10;;;;;;;;;;5028663;28;20080;-77
2024/03/23 14:05:29;;;;;;;3.58;0.90;;;;;;;;;;5027112;28;20433;-77
2024/03/23 14:07:55;;;;;;;4.13;1.30;;;;;;;;;;5009699;28;20077;-78
2024/03/23 14:10:20;;;;;;;7.45;1.02;;;;;;;;;;5005192;28;20050;-78
2024/03/23 14:12:46;;;;;;;6.00;1.45;;;;;;;;;;5011437;28;20057;-78
2024/03/23 14:15:11;;;;;;;6.22;1.08;;;;;;;;;;5033680;28;20065;-78
2024/03/23 14:17:38;;;;;;;5.55;1.20;;;;;;;;;;5012759;28;20065;-78
2024/03/23 14:20:05;;;;;;;4.32;1.20;;;;;;;;;;4992210;28;20072;-79
2024/03/23 14:22:31;;;;;;;7.70;1.67;;;;;;;;;;5001693;28;20049;-78
2024/03/23 14:24:56;;;;;;;8.35;2.58;;;;;;;;;;4991522;28;20112;-79
2024/03/23 14:27:22;;;;;;;3.65;1.30;;;;;;;;;;5028211;28;20057;-80
2024/03/23 14:29:48;;;;;;;4.85;1.25;;;;;;;;;;4988736;28;20069;-80
2024/03/23 14:32:14;;;;;;;2.95;1.20;;;;;;;;;;4985961;28;20054;-77
2024/03/23 14:34:40;;;;;;;2.97;1.10;;;;;;;;;;5007233;28;20503;-78
2024/03/23 14:37:06;;;;;;;4.72;1.33;;;;;;;;;;5022422;28;20140;-78